createdAt,value
2023-01-03T00:02:03.217Z,100793.33
2023-01-03T00:04:32.261Z,100800.09
2023-01-03T00:07:01.466Z,100795.23
2023-01-03T00:09:30.681Z,100793.84
2023-01-03T00:12:18.026Z,100794.30
2023-01-03T00:14:47.984Z,100792.36
2023-01-03T00:17:18.760Z,100789.25
2023-01-03T00:19:48.101Z,100793.79
2023-01-03T00:22:17.466Z,100793.09
2023-01-03T00:24:47.502Z,100784.23
2023-01-03T00:27:16.445Z,100785.25
2023-01-03T00:29:45.883Z,100789.67
2023-01-03T00:32:14.725Z,100781.45
2023-01-03T00:34:45.727Z,100775.12
2023-01-03T00:37:15.254Z,100771.20
2023-01-03T00:39:43.852Z,100778.69
2023-01-03T00:42:12.506Z,100770.58
2023-01-03T00:44:41.932Z,100765.50
2023-01-03T00:47:10.719Z,100760.99
2023-01-03T00:49:40.007Z,100763.70
2023-01-03T00:52:09.119Z,100760.84
2023-01-03T00:54:38.858Z,100752.19
2023-01-03T00:57:07.546Z,100747.22
2023-01-03T00:59:36.408Z,100743.57
2023-01-03T01:02:05.320Z,100746.09
2023-01-03T01:04:34.350Z,100751.87
2023-01-03T01:07:04.023Z,100748.96
2023-01-03T01:09:35.855Z,100739.77
2023-01-03T01:12:05.749Z,100737.20
2023-01-03T01:14:34.959Z,100730.41
2023-01-03T01:17:07.486Z,100722.62
2023-01-03T01:19:42.695Z,100724.37
2023-01-03T01:22:11.666Z,100721.91
2023-01-03T01:24:40.689Z,100714.19
2023-01-03T01:27:09.779Z,100709.37
2023-01-03T01:29:39.434Z,100710.98
2023-01-03T01:32:08.033Z,100707.41
2023-01-03T01:34:37.354Z,100693.34
2023-01-03T01:37:07.620Z,100701.27
2023-01-03T01:39:38.460Z,100694.94
2023-01-03T01:42:31.200Z,100696.45
2023-01-03T01:45:05.597Z,100692.23
2023-01-03T01:47:53.074Z,100678.64
2023-01-03T01:50:38.879Z,100673.24
2023-01-03T01:53:20.822Z,100674.67
2023-01-03T01:56:09.569Z,100664.09
2023-01-03T01:58:40.245Z,100665.05
2023-01-03T02:01:12.155Z,100665.16
2023-01-03T02:03:43.318Z,100655.47
2023-01-03T02:06:14.604Z,100650.80
2023-01-03T02:08:44.813Z,100646.78
2023-01-03T02:11:56.626Z,100637.50
2023-01-03T02:14:55.454Z,100639.41
2023-01-03T02:17:55.776Z,100640.95
2023-01-03T02:20:44.177Z,100630.59
2023-01-03T02:23:36.578Z,100628.55
2023-01-03T02:26:33.496Z,100626.52
2023-01-03T02:29:41.099Z,100618.34
2023-01-03T02:32:34.331Z,100615.97
2023-01-03T02:35:28.601Z,100613.41
2023-01-03T02:38:20.748Z,100599.28
2023-01-03T02:41:01.167Z,100602.34
2023-01-03T02:43:58.379Z,100605.92
2023-01-03T02:46:53.095Z,100606.43
2023-01-03T02:49:38.840Z,100604.90
2023-01-03T02:52:13.903Z,100604.05
2023-01-03T02:54:59.043Z,100602.17
2023-01-03T02:57:33.071Z,100592.81
2023-01-03T03:00:10.360Z,100591.79
2023-01-03T03:02:39.948Z,100596.90
2023-01-03T03:05:12.859Z,100587.70
2023-01-03T03:07:41.739Z,100593.66
2023-01-03T03:10:28.834Z,100589.06
2023-01-03T03:13:36.657Z,100592.47
2023-01-03T03:16:13.441Z,100596.05
2023-01-03T03:18:58.599Z,100597.58
2023-01-03T03:21:50.791Z,100598.94
2023-01-03T03:24:42.560Z,100594.84
2023-01-03T03:27:31.299Z,100589.91
2023-01-03T03:30:00.800Z,100583.27
2023-01-03T03:32:29.926Z,100581.89
2023-01-03T03:34:59.541Z,100582.91
2023-01-03T03:37:30.096Z,100579.67
2023-01-03T03:40:17.396Z,100575.75
2023-01-03T03:43:18.030Z,100579.50
2023-01-03T03:46:16.655Z,100577.13
2023-01-03T03:49:21.835Z,100569.47
2023-01-03T03:51:51.750Z,100568.96
2023-01-03T03:54:21.208Z,100565.56
2023-01-03T03:57:00.413Z,100565.56
2023-01-03T03:59:28.873Z,100562.16
2023-01-03T04:01:58.992Z,100565.55
2023-01-03T04:04:35.113Z,100561.12
2023-01-03T04:07:04.807Z,100559.43
2023-01-03T04:09:33.774Z,100565.55
2023-01-03T04:12:03.883Z,100551.27
2023-01-03T04:14:33.937Z,100553.47
2023-01-03T04:17:04.206Z,100549.39
2023-01-03T04:19:33.401Z,100551.95
2023-01-03T04:22:03.692Z,100553.48
2023-01-03T04:24:32.965Z,100545.31
2023-01-03T04:27:01.883Z,100557.39
2023-01-03T04:29:37.054Z,100552.80
2023-01-03T04:32:02.308Z,100547.52
2023-01-03T04:34:31.316Z,100533.91
2023-01-03T04:37:01.583Z,100537.81
2023-01-03T04:39:30.262Z,100542.23
2023-01-03T04:42:01.449Z,100544.80
2023-01-03T04:44:32.221Z,100550.58
2023-01-03T04:47:01.011Z,100539.50
2023-01-03T04:49:31.518Z,100535.37
2023-01-03T04:52:02.339Z,100537.42
2023-01-03T04:54:31.823Z,100533.67
2023-01-03T04:57:01.498Z,100533.83
2023-01-03T04:59:31.807Z,100533.13
2023-01-03T05:02:02.048Z,100537.53
2023-01-03T05:04:31.907Z,100533.09
2023-01-03T05:07:00.740Z,100518.79
2023-01-03T05:09:29.494Z,100527.61
2023-01-03T05:12:00.187Z,100514.00
2023-01-03T05:14:28.955Z,100519.22
2023-01-03T05:16:58.998Z,100516.79
2023-01-03T05:19:28.817Z,100511.86
2023-01-03T05:22:16.773Z,100504.55
2023-01-03T05:25:04.069Z,100509.81
2023-01-03T05:27:33.102Z,100505.05
2023-01-03T05:30:01.841Z,100503.85
2023-01-03T05:32:30.943Z,100504.02
2023-01-03T05:34:59.826Z,100508.60
2023-01-03T05:37:29.260Z,100496.89
2023-01-03T05:39:58.352Z,100498.75
2023-01-03T05:42:27.492Z,100499.45
2023-01-03T05:44:56.792Z,100500.23
2023-01-03T05:47:26.540Z,100500.26
2023-01-03T05:49:55.508Z,100502.30
2023-01-03T05:52:28.180Z,100500.45
2023-01-03T05:54:58.013Z,100505.22
2023-01-03T05:57:33.448Z,100512.55
2023-01-03T05:59:58.246Z,100507.79
2023-01-03T06:02:28.995Z,100514.08
2023-01-03T06:04:58.939Z,100513.75
2023-01-03T06:07:32.889Z,100509.50
2023-01-03T06:10:02.098Z,100507.97
2023-01-03T06:12:32.056Z,100502.36
2023-01-03T06:15:01.352Z,100511.39
2023-01-03T06:17:49.128Z,100508.50
2023-01-03T06:20:18.717Z,100507.35
2023-01-03T06:22:47.613Z,100507.52
2023-01-03T06:25:17.236Z,100510.25
2023-01-03T06:27:46.621Z,100511.27
2023-01-03T06:30:18.623Z,100509.57
2023-01-03T06:32:47.437Z,100502.94
2023-01-03T06:35:16.447Z,100507.87
2023-01-03T06:37:45.274Z,100504.63
2023-01-03T06:40:14.277Z,100508.72
2023-01-03T06:42:44.503Z,100499.70
2023-01-03T06:45:33.135Z,100509.91
2023-01-03T06:48:25.604Z,100517.73
2023-01-03T06:51:13.650Z,100517.38
2023-01-03T06:53:43.919Z,100495.59
2023-01-03T06:56:12.753Z,100491.83
2023-01-03T06:58:42.757Z,100495.91
2023-01-03T07:01:11.519Z,100509.90
2023-01-03T07:03:40.594Z,100519.94
2023-01-03T07:06:09.403Z,100517.89
2023-01-03T07:08:45.925Z,100532.53
2023-01-03T07:11:13.412Z,100525.72
2023-01-03T07:14:02.734Z,100530.14
2023-01-03T07:16:42.987Z,100528.61
2023-01-03T07:19:16.649Z,100540.01
2023-01-03T07:21:46.396Z,100547.84
2023-01-03T07:24:19.061Z,100540.34
2023-01-03T07:26:48.869Z,100542.37
2023-01-03T07:29:19.557Z,100550.03
2023-01-03T07:31:48.877Z,100537.08
2023-01-03T07:34:19.032Z,100558.37
2023-01-03T07:36:49.767Z,100559.05
2023-01-03T07:39:19.649Z,100556.31
2023-01-03T07:42:07.121Z,100574.38
2023-01-03T07:44:36.854Z,100571.66
2023-01-03T07:47:05.671Z,100578.12
2023-01-03T07:49:34.205Z,100577.61
2023-01-03T07:52:03.458Z,100567.89
2023-01-03T07:54:32.371Z,100567.38
2023-01-03T07:57:01.022Z,100569.56
2023-01-03T07:59:29.653Z,100565.80
2023-01-03T08:01:58.385Z,100554.82
2023-01-03T08:04:28.665Z,100559.84
2023-01-03T08:06:58.291Z,100553.98
2023-01-03T08:09:45.718Z,100550.86
2023-01-03T08:12:32.968Z,100544.79
2023-01-03T08:15:01.713Z,100551.34
2023-01-03T08:17:31.000Z,100548.77
2023-01-03T08:20:00.028Z,100556.30
2023-01-03T08:22:29.550Z,100558.51
2023-01-03T08:24:58.175Z,100568.07
2023-01-03T08:27:27.102Z,100564.52
2023-01-03T08:29:56.510Z,100563.13
2023-01-03T08:32:27.110Z,100570.92
2023-01-03T08:34:56.132Z,100564.25
2023-01-03T08:37:25.190Z,100563.58
2023-01-03T08:40:00.557Z,100551.80
2023-01-03T08:42:30.047Z,100551.31
2023-01-03T08:45:02.748Z,100552.90
2023-01-03T08:47:31.705Z,100560.27
2023-01-03T08:50:00.861Z,100560.30
2023-01-03T08:52:34.806Z,100563.06
2023-01-03T08:55:00.248Z,100547.73
2023-01-03T08:57:29.204Z,100546.22
2023-01-03T08:59:58.658Z,100550.83
2023-01-03T09:02:28.118Z,100550.16
2023-01-03T09:04:56.699Z,100558.69
2023-01-03T09:07:25.589Z,100557.96
2023-01-03T09:09:54.154Z,100549.41
2023-01-03T09:12:22.760Z,100552.29
2023-01-03T09:14:52.223Z,100541.84
2023-01-03T09:17:22.059Z,100540.45
2023-01-03T09:19:50.718Z,100538.36
2023-01-03T09:22:20.022Z,100530.45
2023-01-03T09:24:51.112Z,100552.44
2023-01-03T09:27:22.088Z,100545.56
2023-01-03T09:29:52.857Z,100527.44
2023-01-03T09:32:21.716Z,100536.30
2023-01-03T09:34:50.507Z,100529.95
2023-01-03T09:37:19.293Z,100529.58
2023-01-03T09:39:50.281Z,100529.91
2023-01-03T09:42:43.273Z,100524.59
2023-01-03T09:45:23.772Z,100531.19
2023-01-03T09:47:53.115Z,100513.38
2023-01-03T09:50:39.478Z,100519.47
2023-01-03T09:53:44.707Z,100526.92
2023-01-03T09:56:34.119Z,100530.28
2023-01-03T09:59:35.726Z,100531.09
2023-01-03T10:02:55.502Z,100528.50
2023-01-03T10:05:39.194Z,100523.50
2023-01-03T10:08:29.612Z,100516.94
2023-01-03T10:11:19.469Z,100524.77
2023-01-03T10:14:17.112Z,100509.87
2023-01-03T10:17:07.363Z,100507.41
2023-01-03T10:19:58.860Z,100510.10
2023-01-03T10:22:31.845Z,100503.57
2023-01-03T10:25:16.105Z,100495.83
2023-01-03T10:27:51.999Z,100505.55
2023-01-03T10:31:18.011Z,100506.42
2023-01-03T10:33:49.270Z,100502.92
2023-01-03T10:36:21.443Z,100508.02
2023-01-03T10:39:10.051Z,100515.13
2023-01-03T10:41:52.089Z,100524.00
2023-01-03T10:44:30.189Z,100526.88
2023-01-03T10:47:22.461Z,100534.19
2023-01-03T10:50:03.613Z,100532.80
2023-01-03T10:52:42.367Z,100538.21
2023-01-03T10:55:16.244Z,100532.41
2023-01-03T10:58:00.521Z,100549.50
2023-01-03T11:00:38.251Z,100563.00
2023-01-03T11:03:16.674Z,100542.27
2023-01-03T11:06:00.953Z,100540.70
2023-01-03T11:08:49.199Z,100557.98
2023-01-03T11:11:29.639Z,100555.11
2023-01-03T11:14:26.812Z,100566.59
2023-01-03T11:17:02.797Z,100557.19
2023-01-03T11:19:35.534Z,100563.05
2023-01-03T11:22:37.455Z,100561.69
2023-01-03T11:25:33.464Z,100555.36
2023-01-03T11:28:29.389Z,100555.36
2023-01-03T11:31:22.875Z,100562.86
2023-01-03T11:35:11.729Z,100560.64
2023-01-03T11:37:39.370Z,100563.19
2023-01-03T11:40:41.343Z,100574.14
2023-01-03T11:43:37.535Z,100560.64
2023-01-03T11:46:21.255Z,100576.74
2023-01-03T11:49:23.994Z,100569.24
2023-01-03T11:52:19.908Z,100575.75
2023-01-03T11:55:22.052Z,100583.64
2023-01-03T11:58:25.898Z,100585.86
2023-01-03T12:01:26.279Z,100584.49
2023-01-03T12:04:27.485Z,100586.38
2023-01-03T12:07:47.240Z,100585.53
2023-01-03T12:10:11.958Z,100578.33
2023-01-03T12:13:26.931Z,100571.84
2023-01-03T12:16:15.547Z,100580.06
2023-01-03T12:19:11.988Z,100566.00
2023-01-03T12:21:40.428Z,100583.47
2023-01-03T12:24:37.779Z,100576.30
2023-01-03T12:27:30.551Z,100569.78
2023-01-03T12:30:10.429Z,100566.17
2023-01-03T12:32:56.241Z,100562.53
2023-01-03T12:35:46.844Z,100559.60
2023-01-03T12:38:15.896Z,100560.13
2023-01-03T12:41:06.479Z,100561.30
2023-01-03T12:43:49.793Z,100563.33
2023-01-03T12:46:22.940Z,100562.09
2023-01-03T12:49:32.620Z,100564.83
2023-01-03T12:52:01.344Z,100563.27
2023-01-03T12:54:38.761Z,100558.31
2023-01-03T12:57:38.975Z,100562.75
2023-01-03T13:00:44.280Z,100579.19
2023-01-03T13:03:46.649Z,100579.51
2023-01-03T13:06:32.349Z,100587.02
2023-01-03T13:09:09.832Z,100588.71
2023-01-03T13:11:52.783Z,100596.93
2023-01-03T13:14:25.194Z,100605.14
2023-01-03T13:17:07.120Z,100614.22
2023-01-03T13:19:40.636Z,100617.47
2023-01-03T13:22:31.347Z,100615.06
2023-01-03T13:25:29.121Z,100622.60
2023-01-03T13:28:01.520Z,100624.82
2023-01-03T13:30:36.071Z,100620.19
2023-01-03T13:33:16.119Z,100624.30
2023-01-03T13:35:50.317Z,100632.19
2023-01-03T13:38:37.350Z,100638.34
2023-01-03T13:41:18.160Z,100636.31
2023-01-03T13:43:42.414Z,100642.17
2023-01-03T13:46:28.771Z,100647.14
2023-01-03T13:49:07.532Z,100645.95
2023-01-03T13:51:47.613Z,100648.89
2023-01-03T13:54:22.600Z,100650.45
2023-01-03T13:56:59.471Z,100664.52
2023-01-03T13:59:42.377Z,100666.59
2023-01-03T14:02:26.379Z,100670.56
2023-01-03T14:05:07.353Z,100671.27
2023-01-03T14:08:15.635Z,100674.69
2023-01-03T14:11:27.040Z,100686.20
2023-01-03T14:14:03.413Z,100683.66
2023-01-03T14:16:56.285Z,100690.02
2023-01-03T14:19:38.434Z,100687.33
2023-01-03T14:22:29.655Z,100694.55
2023-01-03T14:24:58.105Z,100699.55
2023-01-03T14:27:40.320Z,100704.21
2023-01-03T14:30:24.402Z,100706.98
2023-01-03T14:32:55.962Z,100708.77
2023-01-03T14:35:45.131Z,100715.13
2023-01-03T14:38:29.276Z,100715.31
2023-01-03T14:41:04.364Z,100723.56
2023-01-03T14:43:36.521Z,100720.16
2023-01-03T14:46:13.378Z,100725.48
2023-01-03T14:48:46.301Z,100715.75
2023-01-03T14:51:17.274Z,100731.84
2023-01-03T14:53:47.045Z,100732.20
2023-01-03T14:56:16.997Z,100730.50
2023-01-03T14:58:47.133Z,100739.23
2023-01-03T15:01:18.618Z,100734.64
2023-01-03T15:03:48.504Z,100732.78
2023-01-03T15:06:28.102Z,100732.12
2023-01-03T15:09:01.059Z,100729.23
2023-01-03T15:11:42.775Z,100734.37
2023-01-03T15:14:12.767Z,100732.15
2023-01-03T15:16:44.797Z,100723.61
2023-01-03T15:19:25.463Z,100721.39
2023-01-03T15:22:14.922Z,100732.52
2023-01-03T15:24:47.284Z,100731.84
2023-01-03T15:27:41.459Z,100733.91
2023-01-03T15:30:23.051Z,100739.41
2023-01-03T15:33:02.894Z,100732.42
2023-01-03T15:35:39.525Z,100742.20
2023-01-03T15:38:38.797Z,100745.63
2023-01-03T15:42:00.166Z,100743.07
2023-01-03T15:44:28.517Z,100754.88
2023-01-03T15:46:59.485Z,100750.97
2023-01-03T15:49:31.175Z,100751.33
2023-01-03T15:52:01.003Z,100754.06
2023-01-03T15:54:31.521Z,100750.47
2023-01-03T15:57:09.014Z,100758.86
2023-01-03T15:59:43.309Z,100761.73
2023-01-03T16:02:15.908Z,100762.43
2023-01-03T16:04:47.417Z,100764.16
2023-01-03T16:07:17.784Z,100760.92
2023-01-03T16:09:48.846Z,100763.66
2023-01-03T16:12:24.110Z,100767.45
2023-01-03T16:14:53.664Z,100767.28
2023-01-03T16:17:26.246Z,100779.92
2023-01-03T16:19:56.615Z,100777.01
2023-01-03T16:22:35.096Z,100783.50
2023-01-03T16:24:57.667Z,100782.14
2023-01-03T16:27:27.300Z,100778.73
2023-01-03T16:29:59.591Z,100782.50
2023-01-03T16:32:31.193Z,100781.30
2023-01-03T16:35:04.971Z,100778.75
2023-01-03T16:37:35.078Z,100783.88
2023-01-03T16:40:16.379Z,100778.25
2023-01-03T16:42:45.857Z,100790.03
2023-01-03T16:45:16.182Z,100786.30
2023-01-03T16:47:46.260Z,100789.87
2023-01-03T16:50:19.117Z,100794.15
2023-01-03T16:52:52.126Z,100803.39
2023-01-03T16:55:34.512Z,100806.47
2023-01-03T16:58:04.973Z,100797.78
2023-01-03T17:00:34.504Z,100805.14
2023-01-03T17:03:03.366Z,100810.09
2023-01-03T17:05:35.688Z,100806.87
2023-01-03T17:08:25.406Z,100813.87
2023-01-03T17:10:56.252Z,100822.58
2023-01-03T17:13:32.796Z,100829.75
2023-01-03T17:16:03.392Z,100834.53
2023-01-03T17:18:37.229Z,100834.37
2023-01-03T17:21:27.968Z,100832.33
2023-01-03T17:24:04.492Z,100828.72
2023-01-03T17:26:35.004Z,100839.47
2023-01-03T17:29:04.814Z,100831.80
2023-01-03T17:31:34.557Z,100835.52
2023-01-03T17:34:26.811Z,100827.52
2023-01-03T17:36:58.957Z,100834.69
2023-01-03T17:39:28.831Z,100837.59
2023-01-03T17:42:15.490Z,100848.16
2023-01-03T17:44:47.415Z,100847.14
2023-01-03T17:47:41.979Z,100841.68
2023-01-03T17:50:12.218Z,100851.23
2023-01-03T17:52:42.855Z,100854.81
2023-01-03T17:55:25.321Z,100849.87
2023-01-03T17:57:54.552Z,100856.17
2023-01-03T18:00:26.198Z,100850.20
2023-01-03T18:02:56.310Z,100853.95
2023-01-03T18:05:27.960Z,100853.09
2023-01-03T18:08:00.471Z,100848.45
2023-01-03T18:10:43.831Z,100855.95
2023-01-03T18:13:28.347Z,100851.86
2023-01-03T18:15:57.087Z,100853.05
2023-01-03T18:18:26.562Z,100859.86
2023-01-03T18:20:55.587Z,100857.30
2023-01-03T18:23:31.706Z,100851.84
2023-01-03T18:26:04.745Z,100851.50
2023-01-03T18:28:34.414Z,100848.77
2023-01-03T18:31:03.248Z,100851.64
2023-01-03T18:33:32.447Z,100853.17
2023-01-03T18:36:01.428Z,100855.56
2023-01-03T18:38:37.297Z,100862.89
2023-01-03T18:41:06.426Z,100858.45
2023-01-03T18:43:35.443Z,100856.57
2023-01-03T18:46:06.067Z,100857.06
2023-01-03T18:48:36.293Z,100853.48
2023-01-03T18:51:06.089Z,100859.60
2023-01-03T18:53:36.628Z,100860.63
2023-01-03T18:56:05.905Z,100857.20
2023-01-03T18:58:39.724Z,100859.59
2023-01-03T19:01:09.961Z,100857.20
2023-01-03T19:03:39.905Z,100854.28
2023-01-03T19:06:20.059Z,100860.41
2023-01-03T19:08:49.162Z,100864.83
2023-01-03T19:11:21.662Z,100864.45
2023-01-03T19:13:52.865Z,100868.20
2023-01-03T19:16:24.557Z,100863.92
2023-01-03T19:18:54.597Z,100864.44
2023-01-03T19:21:23.783Z,100867.83
2023-01-03T19:24:08.598Z,100872.59
2023-01-03T19:26:54.699Z,100874.81
2023-01-03T19:29:33.309Z,100874.12
2023-01-03T19:32:03.440Z,100878.53
2023-01-03T19:34:33.611Z,100869.00
2023-01-03T19:37:04.806Z,100861.84
2023-01-03T19:39:37.473Z,100876.13
2023-01-03T19:42:25.801Z,100878.52
2023-01-03T19:44:55.539Z,100875.45
2023-01-03T19:47:24.668Z,100879.53
2023-01-03T19:49:56.016Z,100881.41
2023-01-03T19:52:25.781Z,100875.77
2023-01-03T19:54:54.505Z,100874.57
2023-01-03T19:57:25.400Z,100871.84
2023-01-03T19:59:56.846Z,100864.37
2023-01-03T20:02:37.164Z,100869.12
2023-01-03T20:05:20.391Z,100870.14
2023-01-03T20:07:50.491Z,100868.94
2023-01-03T20:10:23.989Z,100866.20
2023-01-03T20:12:55.148Z,100868.39
2023-01-03T20:15:28.158Z,100872.98
2023-01-03T20:17:59.566Z,100870.61
2023-01-03T20:20:30.993Z,100864.47
2023-01-03T20:23:07.153Z,100865.98
2023-01-03T20:25:37.234Z,100877.39
2023-01-03T20:28:05.956Z,100883.34
2023-01-03T20:30:35.823Z,100879.08
2023-01-03T20:33:04.748Z,100882.47
2023-01-03T20:38:05.290Z,100881.41
2023-01-03T20:40:34.091Z,100884.10
2023-01-03T20:43:03.562Z,100877.62
2023-01-03T20:45:35.916Z,100888.98
2023-01-03T20:48:04.615Z,100894.59
2023-01-03T20:50:34.731Z,100902.92
2023-01-03T20:53:03.591Z,100898.48
2023-01-03T20:55:33.451Z,100893.33
2023-01-03T20:58:02.214Z,100895.20
2023-01-03T21:00:32.251Z,100895.52
2023-01-03T21:03:02.016Z,100895.83
2023-01-03T21:05:32.435Z,100900.07
2023-01-03T21:08:19.799Z,100900.73
2023-01-03T21:10:50.856Z,100892.38
2023-01-03T21:13:22.200Z,100895.92
2023-01-03T21:15:52.361Z,100890.14
2023-01-03T21:18:21.529Z,100887.42
2023-01-03T21:20:51.236Z,100893.20
2023-01-03T21:23:22.180Z,100900.52
2023-01-03T21:25:50.843Z,100904.41
2023-01-03T21:28:21.321Z,100904.22
2023-01-03T21:30:51.397Z,100904.38
2023-01-03T21:33:21.837Z,100908.27
2023-01-03T21:35:51.781Z,100908.42
2023-01-03T21:38:21.382Z,100912.50
2023-01-03T21:40:50.077Z,100914.53
2023-01-03T21:43:21.267Z,100916.20
2023-01-03T21:45:51.645Z,100910.88
2023-01-03T21:48:21.815Z,100911.55
2023-01-03T21:50:50.405Z,100908.44
2023-01-03T21:53:22.243Z,100910.61
2023-01-03T21:55:50.883Z,100906.84
2023-01-03T21:58:21.955Z,100904.59
2023-01-03T22:00:51.877Z,100904.02
2023-01-03T22:03:39.497Z,100911.47
2023-01-03T22:06:12.437Z,100909.73
2023-01-03T22:08:41.509Z,100902.58
2023-01-03T22:11:12.061Z,100917.69
2023-01-03T22:13:42.310Z,100912.61
2023-01-03T22:16:12.092Z,100916.53
2023-01-03T22:18:41.880Z,100920.41
2023-01-03T22:21:11.259Z,100912.56
2023-01-03T22:23:40.387Z,100914.73
2023-01-03T22:26:12.816Z,100907.59
2023-01-03T22:28:44.965Z,100918.62
2023-01-03T22:31:16.860Z,100914.34
2023-01-03T22:33:47.127Z,100919.94
2023-01-03T22:36:15.762Z,100916.82
2023-01-03T22:38:45.758Z,100919.80
2023-01-03T22:41:17.266Z,100929.62
2023-01-03T22:43:46.042Z,100921.06
2023-01-03T22:46:16.767Z,100921.22
2023-01-03T22:48:47.853Z,100934.25
2023-01-03T22:51:17.057Z,100927.92
2023-01-03T22:53:48.061Z,100927.56
2023-01-03T22:56:17.233Z,100935.87
2023-01-03T22:58:46.744Z,100939.24
2023-01-03T23:01:19.001Z,100938.38
2023-01-03T23:03:48.953Z,100933.10
2023-01-03T23:06:19.560Z,100933.25
2023-01-03T23:08:51.926Z,100938.18
2023-01-03T23:11:42.015Z,100938.63
2023-01-03T23:14:15.867Z,100933.15
2023-01-03T23:16:45.360Z,100934.42
2023-01-03T23:19:17.317Z,100944.94
2023-01-03T23:21:47.836Z,100949.52
2023-01-03T23:24:22.318Z,100942.02
2023-01-03T23:26:51.250Z,100944.03
2023-01-03T23:29:22.039Z,100947.75
2023-01-03T23:31:52.626Z,100937.18
2023-01-03T23:34:21.303Z,100943.47
2023-01-03T23:36:50.307Z,100943.62
2023-01-03T23:39:18.927Z,100949.34
2023-01-03T23:41:48.651Z,100953.02
2023-01-03T23:44:17.272Z,100953.16
2023-01-03T23:46:46.968Z,100956.38
2023-01-03T23:49:16.063Z,100958.68
2023-01-03T23:51:45.775Z,100961.69
2023-01-03T23:54:14.484Z,100950.27
2023-01-03T23:56:44.551Z,100956.20
2023-01-03T23:59:13.155Z,100955.84
